Time;durP1;ratioP1;P1;durP2;ratioP2;P2;SDS_P1;SDS_P2;PMS_P1;PMS_P2;Temp;Humidity;BMP_temperature;BMP_pressure;BME280_temperature;BME280_humidity;BME280_pressure;Samples;Min_cycle;Max_cycle;Signal;HPM_P1;HPM_P2
2022/04/03 00:00:52;;;;;;;4.33;3.27;;;3.80;99.90;;;;;;5064669;28;20205;-66
2022/04/03 00:03:18;;;;;;;3.87;2.97;;;3.80;99.90;;;;;;5072837;28;20169;-67
2022/04/03 00:05:46;;;;;;;4.60;3.20;;;3.80;99.90;;;;;;5088289;28;20199;-66
2022/04/03 00:08:16;;;;;;;4.03;3.40;;;3.80;99.90;;;;;;5072349;28;20226;-66
2022/04/03 00:10:45;;;;;;;3.20;2.90;;;3.90;99.90;;;;;;5097047;28;20173;-66
2022/04/03 00:13:11;;;;;;;4.07;3.07;;;3.90;99.90;;;;;;5104495;28;20205;-66
2022/04/03 00:15:41;;;;;;;3.30;3.00;;;3.90;99.90;;;;;;5086480;28;20181;-66
2022/04/03 00:18:10;;;;;;;4.57;3.07;;;3.90;99.90;;;;;;5106820;27;20165;-65
2022/04/03 00:20:37;;;;;;;3.33;2.80;;;3.90;99.90;;;;;;5070940;28;20220;-66
2022/04/03 00:23:06;;;;;;;4.57;3.20;;;3.90;99.90;;;;;;5075126;28;20204;-66
2022/04/03 00:25:37;;;;;;;3.10;2.73;;;3.90;99.90;;;;;;5074037;28;20260;-66
2022/04/03 00:28:03;;;;;;;3.30;3.00;;;3.90;99.90;;;;;;5074296;28;20171;-66
2022/04/03 00:30:28;;;;;;;3.97;3.00;;;3.90;99.90;;;;;;5075967;28;20283;-66
2022/04/03 00:32:56;;;;;;;4.63;2.83;;;3.90;99.90;;;;;;5106898;28;20246;-66
2022/04/03 00:35:24;;;;;;;3.73;3.10;;;3.90;99.90;;;;;;5076372;28;20308;-66
2022/04/03 00:37:50;;;;;;;3.00;2.53;;;3.90;99.90;;;;;;5104642;27;20205;-68
2022/04/03 00:40:17;;;;;;;3.83;2.90;;;3.90;99.90;;;;;;5096931;28;20177;-66
2022/04/03 00:42:43;;;;;;;3.67;3.03;;;3.90;99.90;;;;;;5084291;28;20177;-66
2022/04/03 00:45:11;;;;;;;4.43;3.10;;;3.90;99.90;;;;;;5081185;28;20269;-66
2022/04/03 00:47:37;;;;;;;2.77;2.50;;;3.90;99.90;;;;;;5108175;28;20181;-67
2022/04/03 00:50:06;;;;;;;3.10;2.73;;;3.90;99.90;;;;;;5074703;28;20192;-66
2022/04/03 00:52:34;;;;;;;3.33;2.60;;;3.90;99.90;;;;;;5061509;28;20211;-67
2022/04/03 00:55:00;;;;;;;3.50;2.80;;;3.90;99.90;;;;;;5077778;28;20217;-66
2022/04/03 00:57:28;;;;;;;3.03;2.73;;;4.00;99.90;;;;;;5079304;28;20233;-66
2022/04/03 00:59:54;;;;;;;3.10;2.80;;;4.00;99.90;;;;;;5107053;28;20196;-66
2022/04/03 01:02:20;;;;;;;3.07;2.60;;;4.00;99.90;;;;;;5107640;27;20272;-66
2022/04/03 01:04:48;;;;;;;3.23;2.90;;;4.00;99.90;;;;;;5106580;28;20185;-66
2022/04/03 01:07:14;;;;;;;3.10;2.80;;;4.00;99.90;;;;;;5105070;27;20204;-66
2022/04/03 01:09:40;;;;;;;3.30;2.80;;;4.00;99.90;;;;;;5102995;27;20185;-67
2022/04/03 01:12:06;;;;;;;3.07;2.70;;;4.00;99.90;;;;;;5111007;27;20180;-66
2022/04/03 01:14:33;;;;;;;3.20;2.70;;;4.00;99.90;;;;;;5072921;28;20258;-66
2022/04/03 01:17:02;;;;;;;3.33;2.93;;;4.00;99.90;;;;;;5071642;28;20197;-67
2022/04/03 01:19:29;;;;;;;3.33;2.73;;;4.00;99.90;;;;;;5068863;28;20204;-66
2022/04/03 01:21:58;;;;;;;3.10;2.80;;;4.00;99.90;;;;;;5058923;28;20208;-66
2022/04/03 01:24:25;;;;;;;2.77;2.57;;;4.00;99.90;;;;;;5104200;27;20176;-66
2022/04/03 01:26:55;;;;;;;4.53;2.40;;;4.00;99.90;;;;;;5106398;27;20184;-66
2022/04/03 01:29:24;;;;;;;2.90;2.50;;;4.00;99.90;;;;;;5103359;28;20200;-66
2022/04/03 01:31:53;;;;;;;3.23;2.80;;;4.00;99.90;;;;;;5108549;27;20248;-67
2022/04/03 01:34:20;;;;;;;3.60;2.40;;;4.10;99.90;;;;;;5105599;28;20185;-66
2022/04/03 01:36:48;;;;;;;3.30;2.90;;;4.10;99.90;;;;;;5106896;28;20200;-67
2022/04/03 01:39:14;;;;;;;3.80;2.67;;;4.10;99.90;;;;;;5083480;28;20245;-65
2022/04/03 01:41:42;;;;;;;2.90;2.60;;;4.10;99.90;;;;;;5061371;28;20272;-64
2022/04/03 01:44:09;;;;;;;3.30;2.67;;;4.10;99.90;;;;;;5054519;28;20189;-66
2022/04/03 01:46:36;;;;;;;2.63;2.43;;;4.10;99.90;;;;;;5069101;28;20188;-65
2022/04/03 01:49:11;;;;;;;3.90;2.60;;;4.10;99.90;;;;;;5094673;27;20192;-67
2022/04/03 01:51:36;;;;;;;3.30;2.50;;;4.10;99.90;;;;;;5105375;27;20215;-66
2022/04/03 01:54:05;;;;;;;3.40;2.67;;;4.10;99.90;;;;;;5106775;28;20281;-66
2022/04/03 01:56:34;;;;;;;2.80;2.53;;;4.10;99.90;;;;;;5104225;28;20180;-66
2022/04/03 01:59:00;;;;;;;3.13;2.70;;;4.10;99.90;;;;;;5106430;28;20191;-66
2022/04/03 02:01:26;;;;;;;3.90;2.43;;;4.10;99.90;;;;;;5104213;27;20188;-66
2022/04/03 02:03:51;;;;;;;2.60;2.40;;;4.10;99.90;;;;;;5105150;28;20401;-66
2022/04/03 02:06:17;;;;;;;2.67;2.43;;;4.10;99.90;;;;;;5107998;27;20181;-66
2022/04/03 02:08:43;;;;;;;2.93;2.50;;;4.10;99.90;;;;;;5106193;27;20254;-66
2022/04/03 02:11:09;;;;;;;2.40;2.20;;;4.00;99.90;;;;;;5103510;27;20189;-66
2022/04/03 02:13:35;;;;;;;2.77;2.50;;;4.10;99.90;;;;;;5072176;28;20258;-64
2022/04/03 02:16:03;;;;;;;2.63;2.40;;;4.00;99.90;;;;;;5097474;28;20189;-63
2022/04/03 02:18:29;;;;;;;2.80;2.30;;;4.10;99.90;;;;;;5104823;27;20201;-65
2022/04/03 02:20:55;;;;;;;3.27;2.13;;;4.10;99.90;;;;;;5065139;28;20211;-65
2022/04/03 02:23:25;;;;;;;3.30;3.00;;;4.10;99.90;;;;;;5106149;28;20292;-65
2022/04/03 02:25:53;;;;;;;2.93;2.50;;;4.10;99.90;;;;;;5096591;28;20181;-65
2022/04/03 02:28:22;;;;;;;3.10;2.50;;;4.00;99.90;;;;;;5102915;28;20238;-65
2022/04/03 02:30:51;;;;;;;2.93;2.60;;;4.00;99.90;;;;;;5056524;28;20324;-67
2022/04/03 02:33:16;;;;;;;3.20;2.67;;;4.00;99.90;;;;;;5101738;28;20208;-66
2022/04/03 02:35:44;;;;;;;4.43;2.30;;;4.00;99.90;;;;;;5103404;28;20188;-64
2022/04/03 02:38:10;;;;;;;2.97;2.67;;;4.00;99.90;;;;;;5064958;28;20200;-65
2022/04/03 02:40:36;;;;;;;3.10;2.80;;;4.00;99.90;;;;;;5109464;27;20180;-64
2022/04/03 02:43:04;;;;;;;2.57;2.37;;;4.00;99.90;;;;;;5063352;28;20185;-65
2022/04/03 02:45:29;;;;;;;2.57;2.23;;;4.00;99.90;;;;;;5069608;28;20223;-65
2022/04/03 02:47:58;;;;;;;4.00;2.70;;;4.00;99.90;;;;;;5103760;28;20185;-65
2022/04/03 02:50:26;;;;;;;4.57;2.53;;;4.00;99.90;;;;;;5089704;28;20188;-66
2022/04/03 02:52:54;;;;;;;2.67;2.33;;;4.00;99.90;;;;;;5071606;28;20265;-67
2022/04/03 02:55:21;;;;;;;2.70;2.50;;;4.00;99.90;;;;;;5067306;28;20187;-65
2022/04/03 02:57:47;;;;;;;3.20;2.70;;;4.00;99.90;;;;;;5065716;28;20657;-66
2022/04/03 03:00:17;;;;;;;2.90;2.60;;;4.00;99.90;;;;;;5067708;28;20176;-66
2022/04/03 03:02:49;;;;;;;3.13;2.43;;;4.00;99.90;;;;;;5094859;28;20262;-66
2022/04/03 03:05:15;;;;;;;3.27;2.70;;;4.00;99.90;;;;;;5066475;28;20267;-66
2022/04/03 03:07:42;;;;;;;2.80;2.33;;;4.00;99.90;;;;;;5102000;28;20184;-64
2022/04/03 03:10:14;;;;;;;3.30;2.53;;;4.00;99.90;;;;;;5106268;28;20234;-65
2022/04/03 03:12:40;;;;;;;3.23;2.80;;;4.00;99.90;;;;;;5072123;28;20223;-66
2022/04/03 03:15:06;;;;;;;3.40;2.77;;;4.00;99.90;;;;;;5108912;27;20177;-65
2022/04/03 03:17:31;;;;;;;2.97;2.60;;;4.00;99.90;;;;;;5069991;28;20176;-65
2022/04/03 03:20:01;;;;;;;4.00;2.90;;;4.00;99.90;;;;;;5098096;28;20173;-66
2022/04/03 03:22:26;;;;;;;3.43;2.93;;;4.00;99.90;;;;;;5076502;28;20212;-66
2022/04/03 03:24:52;;;;;;;2.97;2.57;;;3.90;99.90;;;;;;5075526;28;20196;-65
2022/04/03 03:27:18;;;;;;;3.00;2.70;;;4.00;99.90;;;;;;5103146;28;20315;-65
2022/04/03 03:29:48;;;;;;;3.87;2.90;;;4.00;99.90;;;;;;5068445;28;20299;-66
2022/04/03 03:32:14;;;;;;;3.10;2.67;;;4.00;99.90;;;;;;5080501;28;20180;-65
2022/04/03 03:34:41;;;;;;;3.17;2.87;;;3.90;99.90;;;;;;5102026;27;20178;-65
2022/04/03 03:37:08;;;;;;;3.23;2.63;;;4.00;99.90;;;;;;5065851;28;20255;-66
2022/04/03 03:39:34;;;;;;;3.27;2.97;;;3.90;99.90;;;;;;5080852;28;20192;-66
2022/04/03 03:42:00;;;;;;;4.00;3.23;;;3.90;99.90;;;;;;5087684;28;20173;-65
2022/04/03 03:44:28;;;;;;;2.97;2.67;;;3.90;99.90;;;;;;5067123;28;20176;-66
2022/04/03 03:46:53;;;;;;;3.83;3.07;;;3.90;99.90;;;;;;5104517;28;20235;-66
2022/04/03 03:49:19;;;;;;;3.30;3.00;;;4.00;99.90;;;;;;5076144;28;20177;-65
2022/04/03 03:51:45;;;;;;;3.00;2.50;;;4.00;99.90;;;;;;5077625;28;20237;-65
2022/04/03 03:54:11;;;;;;;3.03;2.73;;;3.90;99.90;;;;;;5073634;28;20212;-66
2022/04/03 03:56:36;;;;;;;3.20;2.90;;;3.90;99.90;;;;;;5078207;28;20181;-65
2022/04/03 03:59:05;;;;;;;3.20;2.90;;;3.90;99.90;;;;;;5108735;28;20267;-65
2022/04/03 04:01:31;;;;;;;5.10;3.10;;;3.90;99.90;;;;;;5077144;28;20180;-66
2022/04/03 04:03:59;;;;;;;3.43;3.00;;;3.90;99.90;;;;;;5079708;28;20247;-66
2022/04/03 04:06:25;;;;;;;4.20;2.83;;;3.90;99.90;;;;;;5061719;28;20185;-66
2022/04/03 04:08:51;;;;;;;3.13;2.60;;;3.90;99.90;;;;;;5100824;28;20187;-66
2022/04/03 04:11:16;;;;;;;4.57;3.27;;;3.90;99.90;;;;;;5106390;28;20234;-66
2022/04/03 04:13:44;;;;;;;3.13;2.80;;;3.90;99.90;;;;;;5096249;28;20231;-67
2022/04/03 04:16:10;;;;;;;2.60;2.40;;;3.90;99.90;;;;;;5102428;28;20173;-66
2022/04/03 04:18:36;;;;;;;3.20;2.60;;;3.90;99.90;;;;;;5071462;28;20183;-66
2022/04/03 04:21:04;;;;;;;3.23;2.53;;;3.90;99.90;;;;;;5108533;28;20192;-66
2022/04/03 04:23:30;;;;;;;3.00;2.70;;;3.90;99.90;;;;;;5112487;27;20287;-66
2022/04/03 04:25:58;;;;;;;3.80;3.00;;;3.90;99.90;;;;;;5072608;28;20200;-66
2022/04/03 04:28:25;;;;;;;2.87;2.57;;;3.90;99.90;;;;;;5090486;28;20181;-66
2022/04/03 04:30:54;;;;;;;3.17;2.70;;;3.80;99.90;;;;;;5107664;27;20263;-66
2022/04/03 04:33:22;;;;;;;3.23;2.87;;;3.80;99.90;;;;;;5108334;28;20204;-66
2022/04/03 04:35:50;;;;;;;3.20;2.90;;;3.90;99.90;;;;;;5102978;28;20200;-65
2022/04/03 04:38:15;;;;;;;3.07;2.77;;;3.80;99.90;;;;;;5108731;27;20249;-66
2022/04/03 04:40:43;;;;;;;3.50;3.10;;;3.80;99.90;;;;;;5100785;27;20214;-66
2022/04/03 04:43:11;;;;;;;3.67;2.63;;;3.80;99.90;;;;;;5070471;28;20181;-67
2022/04/03 04:45:39;;;;;;;3.20;2.40;;;3.80;99.90;;;;;;5108513;28;20180;-65
2022/04/03 04:48:07;;;;;;;3.47;2.73;;;3.80;99.90;;;;;;5101263;28;20181;-67
2022/04/03 04:50:33;;;;;;;3.10;2.80;;;3.80;99.90;;;;;;5073379;28;20180;-66
2022/04/03 04:53:03;;;;;;;3.30;2.83;;;3.80;99.90;;;;;;5073992;28;20222;-65
2022/04/03 04:55:29;;;;;;;4.40;2.90;;;3.80;99.90;;;;;;5067701;28;20173;-66
2022/04/03 04:57:58;;;;;;;2.93;2.60;;;3.80;99.90;;;;;;5072264;28;20183;-65
2022/04/03 05:00:26;;;;;;;4.00;3.10;;;3.70;99.90;;;;;;5072432;28;20195;-66
2022/04/03 05:02:52;;;;;;;3.10;2.73;;;3.80;99.90;;;;;;5103229;28;20172;-66
2022/04/03 05:05:19;;;;;;;3.63;3.00;;;3.70;99.90;;;;;;5104398;28;20279;-65
2022/04/03 05:07:47;;;;;;;2.97;2.70;;;3.70;99.90;;;;;;5096286;28;20189;-67
2022/04/03 05:10:14;;;;;;;3.27;2.90;;;3.70;99.90;;;;;;5100760;28;20204;-65
2022/04/03 05:12:40;;;;;;;3.47;2.80;;;3.70;99.90;;;;;;5102722;27;20285;-65
2022/04/03 05:15:10;;;;;;;3.27;2.97;;;3.70;99.90;;;;;;5087356;28;20188;-65
2022/04/03 05:17:36;;;;;;;3.17;2.87;;;3.70;99.90;;;;;;5071805;28;20185;-66
2022/04/03 05:20:03;;;;;;;4.00;2.70;;;3.70;99.90;;;;;;5108127;27;20177;-65
2022/04/03 05:22:29;;;;;;;3.47;2.93;;;3.70;99.90;;;;;;5074887;28;20173;-65
2022/04/03 05:24:55;;;;;;;3.23;2.80;;;3.70;99.90;;;;;;5108951;27;20177;-65
2022/04/03 05:27:24;;;;;;;3.93;3.00;;;3.70;99.90;;;;;;5067241;28;20176;-65
2022/04/03 05:29:49;;;;;;;3.40;3.10;;;3.70;99.90;;;;;;5102225;28;20184;-65
2022/04/03 05:32:27;;;;;;;4.47;3.20;;;3.60;99.90;;;;;;5073095;28;20165;-65
2022/04/03 05:34:57;;;;;;;3.63;2.93;;;3.60;99.90;;;;;;5102868;28;20255;-67
2022/04/03 05:37:23;;;;;;;3.37;3.07;;;3.60;99.90;;;;;;5102854;28;20192;-67
2022/04/03 05:39:51;;;;;;;4.10;3.13;;;3.60;99.90;;;;;;5068008;28;20192;-66
2022/04/03 05:42:21;;;;;;;3.30;3.00;;;3.60;99.90;;;;;;5075567;28;20173;-65
2022/04/03 05:44:50;;;;;;;3.70;2.87;;;3.60;99.90;;;;;;5094344;28;20192;-65
2022/04/03 05:47:19;;;;;;;3.90;3.30;;;3.60;99.90;;;;;;5056515;28;20318;-65
2022/04/03 05:49:47;;;;;;;3.63;3.20;;;3.50;99.90;;;;;;5060149;28;20169;-65
2022/04/03 05:52:13;;;;;;;3.33;3.03;;;3.60;99.90;;;;;;5061633;28;20204;-66
2022/04/03 05:54:39;;;;;;;4.00;3.30;;;3.50;99.90;;;;;;5068436;28;20188;-66
2022/04/03 05:57:05;;;;;;;3.50;3.20;;;3.50;99.90;;;;;;5075567;28;20264;-67
2022/04/03 05:59:33;;;;;;;3.50;3.20;;;3.50;99.90;;;;;;5075858;28;20363;-66
2022/04/03 06:01:59;;;;;;;3.23;2.93;;;3.50;99.90;;;;;;5068868;28;20207;-65
2022/04/03 06:04:26;;;;;;;3.53;3.23;;;3.50;99.90;;;;;;5102835;27;20168;-66
2022/04/03 06:06:52;;;;;;;3.30;2.93;;;3.50;99.90;;;;;;5073424;28;20199;-65
2022/04/03 06:09:20;;;;;;;3.37;3.07;;;3.50;99.90;;;;;;5110080;27;20184;-66
2022/04/03 06:11:48;;;;;;;4.63;3.43;;;3.50;99.90;;;;;;5109284;27;20190;-65
2022/04/03 06:14:16;;;;;;;3.53;3.20;;;3.60;99.90;;;;;;5100331;28;20204;-65
2022/04/03 06:16:44;;;;;;;3.80;3.30;;;3.60;99.90;;;;;;5074314;28;20176;-66
2022/04/03 06:19:09;;;;;;;3.87;3.47;;;3.50;99.90;;;;;;5070836;28;20176;-66
2022/04/03 06:21:37;;;;;;;3.93;3.17;;;3.60;99.90;;;;;;5060056;28;20188;-65
2022/04/03 06:24:03;;;;;;;3.33;3.03;;;3.60;99.90;;;;;;5061363;28;20220;-65
2022/04/03 06:26:31;;;;;;;4.07;3.50;;;3.60;99.90;;;;;;5103550;28;20189;-66
2022/04/03 06:28:59;;;;;;;3.97;3.50;;;3.60;99.90;;;;;;5108699;27;20188;-66
2022/04/03 06:31:24;;;;;;;3.80;3.40;;;3.60;99.90;;;;;;5101356;27;20427;-65
2022/04/03 06:33:52;;;;;;;4.87;3.20;;;3.60;99.90;;;;;;5091970;28;20211;-66
2022/04/03 06:36:18;;;;;;;3.93;3.43;;;3.60;99.90;;;;;;5086712;28;20205;-66
2022/04/03 06:38:46;;;;;;;3.90;3.50;;;3.60;99.90;;;;;;5108944;27;20203;-65
2022/04/03 06:41:14;;;;;;;3.87;3.47;;;3.70;99.90;;;;;;5107595;28;20196;-66
2022/04/03 06:43:40;;;;;;;4.30;3.33;;;3.70;99.90;;;;;;5106736;28;20200;-66
2022/04/03 06:46:08;;;;;;;3.90;3.43;;;3.70;99.90;;;;;;5069178;28;20197;-66
2022/04/03 06:48:36;;;;;;;6.23;3.50;;;3.70;99.90;;;;;;5073417;28;20204;-66
2022/04/03 06:51:01;;;;;;;4.43;3.50;;;3.80;99.90;;;;;;5062364;28;20295;-65
2022/04/03 06:53:30;;;;;;;4.00;3.40;;;3.80;99.90;;;;;;5105953;28;20228;-66
2022/04/03 06:55:57;;;;;;;3.17;2.83;;;3.90;99.90;;;;;;5105149;28;20200;-65
2022/04/03 06:58:25;;;;;;;5.47;3.40;;;3.90;99.90;;;;;;5067665;28;20227;-65
2022/04/03 07:00:53;;;;;;;3.80;3.40;;;3.90;99.90;;;;;;5107482;28;20200;-66
2022/04/03 07:03:19;;;;;;;4.90;3.63;;;4.00;99.90;;;;;;5105899;28;20193;-65
2022/04/03 07:05:44;;;;;;;4.10;3.33;;;4.00;99.90;;;;;;5074929;28;20183;-65
2022/04/03 07:08:10;;;;;;;7.23;3.57;;;4.10;99.90;;;;;;5105647;28;20172;-66
2022/04/03 07:10:36;;;;;;;5.00;3.80;;;4.10;99.90;;;;;;5107928;28;20245;-65
2022/04/03 07:13:02;;;;;;;3.83;3.40;;;4.20;99.90;;;;;;5068947;28;20390;-66
2022/04/03 07:15:27;;;;;;;4.53;3.70;;;4.20;99.90;;;;;;5106003;28;20419;-65
2022/04/03 07:17:55;;;;;;;4.17;3.50;;;4.20;99.90;;;;;;5072612;28;20181;-65
2022/04/03 07:20:21;;;;;;;4.17;3.77;;;4.30;99.90;;;;;;5076229;28;20169;-66
2022/04/03 07:22:46;;;;;;;4.27;3.87;;;4.30;99.90;;;;;;5071958;28;20216;-65
2022/04/03 07:25:14;;;;;;;6.13;4.50;;;4.30;99.90;;;;;;5102131;28;20184;-65
2022/04/03 07:27:41;;;;;;;4.53;3.80;;;4.30;99.90;;;;;;5069388;28;20185;-67
2022/04/03 07:30:08;;;;;;;4.90;3.90;;;4.30;99.90;;;;;;5072454;28;20196;-66
2022/04/03 07:32:35;;;;;;;5.23;4.03;;;4.30;99.90;;;;;;5078664;28;20207;-66
2022/04/03 07:35:03;;;;;;;4.50;4.10;;;4.30;99.90;;;;;;5073255;28;20188;-67
2022/04/03 07:37:32;;;;;;;4.17;3.50;;;4.30;99.90;;;;;;5068129;28;20505;-66
2022/04/03 07:39:59;;;;;;;4.47;3.73;;;4.30;99.90;;;;;;5072383;28;20183;-67
2022/04/03 07:42:25;;;;;;;3.83;3.43;;;4.30;99.90;;;;;;5101335;28;20269;-66
2022/04/03 07:44:50;;;;;;;3.60;3.10;;;4.40;99.90;;;;;;5071250;28;20393;-65
2022/04/03 07:47:16;;;;;;;4.10;3.53;;;4.40;99.90;;;;;;5072738;28;20176;-66
2022/04/03 07:49:41;;;;;;;5.30;3.63;;;4.40;99.90;;;;;;5072834;28;20168;-66
2022/04/03 07:52:07;;;;;;;4.43;3.57;;;4.40;99.90;;;;;;5101408;28;20185;-65
2022/04/03 07:54:33;;;;;;;4.20;3.53;;;4.40;99.90;;;;;;5064684;28;20174;-65
2022/04/03 07:56:58;;;;;;;4.10;3.47;;;4.30;99.90;;;;;;5105428;28;20184;-66
2022/04/03 07:59:24;;;;;;;3.80;3.23;;;4.40;99.90;;;;;;5072888;28;20208;-66
2022/04/03 08:01:50;;;;;;;5.47;3.60;;;4.30;99.90;;;;;;5068884;28;20279;-65
2022/04/03 08:04:17;;;;;;;5.40;4.10;;;4.30;99.90;;;;;;5073428;28;20184;-64
2022/04/03 08:06:45;;;;;;;4.20;3.80;;;4.30;99.90;;;;;;5093253;28;20236;-65
2022/04/03 08:09:13;;;;;;;4.93;3.70;;;4.30;99.90;;;;;;5105943;27;20207;-65
2022/04/03 08:11:42;;;;;;;4.63;3.80;;;4.30;99.90;;;;;;5091262;28;20187;-65
2022/04/03 08:14:08;;;;;;;4.70;4.00;;;4.20;99.90;;;;;;5072832;28;20295;-65
2022/04/03 08:16:36;;;;;;;5.30;3.87;;;4.20;99.90;;;;;;5113787;27;20179;-65
2022/04/03 08:19:03;;;;;;;5.67;4.20;;;4.20;99.90;;;;;;5107927;27;20176;-65
2022/04/03 08:21:32;;;;;;;4.53;3.40;;;4.30;99.90;;;;;;5078441;28;20282;-63
2022/04/03 08:24:00;;;;;;;7.27;4.07;;;4.30;99.90;;;;;;5103447;27;20277;-64
2022/04/03 08:26:28;;;;;;;5.63;4.43;;;4.30;99.90;;;;;;5104263;27;20195;-65
2022/04/03 08:28:54;;;;;;;4.70;4.00;;;4.30;99.90;;;;;;5083462;28;20211;-65
2022/04/03 08:31:23;;;;;;;4.40;3.87;;;4.40;99.90;;;;;;5108230;27;20180;-65
2022/04/03 08:33:52;;;;;;;5.03;4.00;;;4.40;99.90;;;;;;5080290;28;20192;-65
2022/04/03 08:36:21;;;;;;;4.10;3.70;;;4.50;99.90;;;;;;5072292;28;20193;-64
2022/04/03 08:38:52;;;;;;;4.90;4.00;;;4.50;99.90;;;;;;5108775;27;20173;-65
2022/04/03 08:41:17;;;;;;;7.30;4.40;;;4.60;99.90;;;;;;5075735;28;20301;-65
2022/04/03 08:43:47;;;;;;;4.33;3.93;;;4.60;99.90;;;;;;5109200;28;20864;-65
2022/04/03 08:46:17;;;;;;;4.43;3.97;;;4.70;99.90;;;;;;5077037;28;20199;-66
2022/04/03 08:48:46;;;;;;;4.33;3.93;;;4.70;99.90;;;;;;5062836;28;20396;-64
2022/04/03 08:51:13;;;;;;;4.63;3.87;;;4.80;99.90;;;;;;5074189;28;20195;-64
2022/04/03 08:53:43;;;;;;;4.87;3.90;;;4.80;99.90;;;;;;5081711;28;20213;-65
2022/04/03 08:56:09;;;;;;;4.70;4.10;;;4.90;99.90;;;;;;5109263;27;20215;-65
2022/04/03 08:58:37;;;;;;;4.37;3.97;;;5.00;99.90;;;;;;5077105;28;20418;-65
2022/04/03 09:01:04;;;;;;;4.17;3.77;;;5.00;99.90;;;;;;5101264;27;20183;-65
2022/04/03 09:03:32;;;;;;;4.43;3.80;;;5.10;99.90;;;;;;5075576;28;20192;-65
2022/04/03 09:06:16;;;;;;;4.40;3.90;;;5.20;99.90;;;;;;5109830;27;20295;-65
2022/04/03 09:08:43;;;;;;;3.83;3.53;;;5.30;99.90;;;;;;5063320;28;20187;-65
2022/04/03 09:11:11;;;;;;;4.10;3.47;;;5.40;99.90;;;;;;5090970;28;20223;-65
2022/04/03 09:13:38;;;;;;;6.53;3.43;;;5.40;99.90;;;;;;5098631;27;20236;-65
2022/04/03 09:16:07;;;;;;;3.80;3.30;;;5.60;99.90;;;;;;5076057;28;20180;-65
2022/04/03 09:18:48;;;;;;;3.73;3.33;;;5.60;99.90;;;;;;5101160;27;20822;-65
2022/04/03 09:21:27;;;;;;;4.13;3.40;;;5.70;99.90;;;;;;5072264;28;20180;-65
2022/04/03 09:23:59;;;;;;;4.00;3.27;;;5.80;99.90;;;;;;5104994;27;20204;-65
2022/04/03 09:26:28;;;;;;;3.40;2.93;;;5.80;99.90;;;;;;5084056;28;20178;-65
2022/04/03 09:29:20;;;;;;;6.20;3.10;;;5.90;99.90;;;;;;5072738;28;20239;-66
2022/04/03 09:31:46;;;;;;;4.07;3.50;;;6.00;99.90;;;;;;5056933;28;20192;-68
2022/04/03 09:34:25;;;;;;;3.23;2.93;;;6.10;99.90;;;;;;5075170;28;20383;-66
2022/04/03 09:37:01;;;;;;;7.50;2.70;;;6.20;99.90;;;;;;5077864;28;20207;-65
2022/04/03 09:39:29;;;;;;;3.40;3.10;;;6.20;99.90;;;;;;5089899;28;20249;-64
2022/04/03 09:42:01;;;;;;;3.43;3.00;;;6.30;99.90;;;;;;5107219;27;20196;-66
2022/04/03 09:44:40;;;;;;;4.30;3.30;;;6.40;99.90;;;;;;5072524;28;20196;-64
2022/04/03 09:47:20;;;;;;;3.73;3.07;;;6.50;99.90;;;;;;5072667;28;20185;-65
2022/04/03 09:50:03;;;;;;;4.17;3.07;;;6.60;99.90;;;;;;5086296;28;20180;-65
2022/04/03 09:52:39;;;;;;;5.50;2.87;;;6.60;99.90;;;;;;5074635;28;20220;-64
2022/04/03 09:55:17;;;;;;;3.33;2.77;;;6.70;99.90;;;;;;5104642;27;20196;-66
2022/04/03 09:57:47;;;;;;;4.07;2.93;;;6.80;99.90;;;;;;5096765;28;20187;-66
2022/04/03 10:00:26;;;;;;;3.23;2.93;;;6.90;99.90;;;;;;5068968;28;20181;-65
2022/04/03 10:03:00;;;;;;;4.90;3.43;;;7.10;99.90;;;;;;5107468;27;20243;-66
2022/04/03 10:05:32;;;;;;;4.00;3.70;;;7.70;99.90;;;;;;5074937;28;20242;-66
2022/04/03 10:08:00;;;;;;;4.13;3.73;;;8.20;99.90;;;;;;5071356;28;20211;-65
2022/04/03 10:10:29;;;;;;;4.67;4.07;;;8.60;99.90;;;;;;5106194;27;20354;-66
2022/04/03 10:12:57;;;;;;;5.23;3.80;;;8.80;99.90;;;;;;5105253;27;20274;-65
2022/04/03 10:15:25;;;;;;;4.07;3.67;;;9.00;99.90;;;;;;5075641;28;20176;-66
2022/04/03 10:17:51;;;;;;;4.43;4.03;;;9.10;99.90;;;;;;5074699;28;20187;-66
2022/04/03 10:20:18;;;;;;;4.33;3.47;;;9.10;99.90;;;;;;5103611;27;20219;-66
2022/04/03 10:22:49;;;;;;;3.50;3.20;;;9.00;99.90;;;;;;5079784;28;20286;-64
2022/04/03 10:25:24;;;;;;;4.07;3.60;;;8.80;99.90;;;;;;5101879;27;20181;-66
2022/04/03 10:27:51;;;;;;;3.57;3.03;;;8.60;99.90;;;;;;5106249;27;20172;-65
2022/04/03 10:30:17;;;;;;;4.23;3.47;;;8.50;99.90;;;;;;5100298;27;20189;-66
2022/04/03 10:32:58;;;;;;;3.30;3.00;;;8.40;99.90;;;;;;5087805;28;20257;-64
2022/04/03 10:35:26;;;;;;;3.30;3.00;;;8.40;99.90;;;;;;5077152;28;20266;-63
2022/04/03 10:38:05;;;;;;;4.97;3.50;;;8.40;99.90;;;;;;5070873;28;20196;-65
2022/04/03 10:40:38;;;;;;;3.40;3.10;;;8.50;99.90;;;;;;5069344;28;20271;-65
2022/04/03 10:43:07;;;;;;;3.40;3.10;;;8.60;99.90;;;;;;5107083;28;20176;-63
2022/04/03 10:45:41;;;;;;;3.70;3.40;;;8.70;99.90;;;;;;5105865;27;20168;-65
2022/04/03 10:48:21;;;;;;;3.70;3.40;;;9.00;99.90;;;;;;5068472;28;20188;-63
2022/04/03 10:51:08;;;;;;;4.70;3.17;;;9.30;99.90;;;;;;5073545;28;20199;-65
2022/04/03 10:53:42;;;;;;;3.40;3.10;;;9.50;99.90;;;;;;5063481;28;20277;-64
2022/04/03 10:56:30;;;;;;;3.53;2.83;;;9.50;99.90;;;;;;5073709;28;20408;-65
2022/04/03 10:58:57;;;;;;;2.80;2.53;;;9.40;99.90;;;;;;5064784;28;20267;-65
2022/04/03 11:01:24;;;;;;;3.53;3.00;;;9.30;99.90;;;;;;5072682;28;20176;-64
2022/04/03 11:03:59;;;;;;;3.20;2.90;;;9.30;99.90;;;;;;5071692;28;20189;-63
2022/04/03 11:06:31;;;;;;;4.53;3.60;;;9.30;99.90;;;;;;5086335;28;20188;-65
2022/04/03 11:09:05;;;;;;;3.37;2.90;;;9.20;99.90;;;;;;5101191;28;20200;-65
2022/04/03 11:11:34;;;;;;;3.20;2.90;;;9.20;99.90;;;;;;5070114;28;20321;-65
2022/04/03 11:13:59;;;;;;;5.40;3.80;;;9.10;99.90;;;;;;5083187;28;20227;-65
2022/04/03 11:16:26;;;;;;;4.20;3.33;;;9.10;99.90;;;;;;5068197;28;20220;-65
2022/04/03 11:19:02;;;;;;;3.40;3.10;;;9.10;99.90;;;;;;5082319;28;20177;-65
2022/04/03 11:21:33;;;;;;;3.43;3.10;;;9.20;99.90;;;;;;5091636;28;20216;-65
2022/04/03 11:24:03;;;;;;;3.57;3.27;;;9.20;99.90;;;;;;5095748;28;20183;-65
2022/04/03 11:26:29;;;;;;;3.70;3.40;;;9.10;99.90;;;;;;5063283;28;20183;-64
2022/04/03 11:28:55;;;;;;;4.13;3.43;;;9.10;99.90;;;;;;5106142;28;20336;-65
2022/04/03 11:31:24;;;;;;;4.37;3.40;;;9.00;99.90;;;;;;5066027;28;20284;-65
2022/04/03 11:33:49;;;;;;;4.00;3.47;;;8.90;99.90;;;;;;5072214;28;20209;-65
2022/04/03 11:36:27;;;;;;;3.70;3.40;;;8.90;99.90;;;;;;5072436;28;20193;-65
2022/04/03 11:39:00;;;;;;;4.23;3.40;;;9.00;99.90;;;;;;5072400;28;20173;-65
2022/04/03 11:41:37;;;;;;;4.10;3.70;;;9.20;99.90;;;;;;5104377;27;20292;-64
2022/04/03 11:44:06;;;;;;;4.43;4.03;;;9.40;99.90;;;;;;5106945;27;20184;-64
2022/04/03 11:46:36;;;;;;;4.43;4.00;;;9.70;99.90;;;;;;5076335;28;20267;-64
2022/04/03 11:49:21;;;;;;;4.83;4.40;;;9.90;99.90;;;;;;5070515;28;20453;-65
2022/04/03 11:51:51;;;;;;;5.13;4.73;;;10.10;99.90;;;;;;5106778;27;20189;-65
2022/04/03 11:54:25;;;;;;;5.43;4.87;;;10.10;99.90;;;;;;5073039;28;20208;-65
2022/04/03 11:56:58;;;;;;;6.00;4.90;;;10.00;99.90;;;;;;5071934;28;20182;-65
2022/04/03 11:59:24;;;;;;;5.43;4.37;;;9.90;99.90;;;;;;5106669;27;20184;-64
2022/04/03 12:01:51;;;;;;;5.00;4.53;;;9.80;99.90;;;;;;5071861;28;20200;-65
2022/04/03 12:04:19;;;;;;;5.00;4.50;;;9.80;99.90;;;;;;5071593;28;20173;-64
2022/04/03 12:06:57;;;;;;;5.22;4.72;;;9.90;99.90;;;;;;5074412;28;20234;-64
2022/04/03 12:09:26;;;;;;;4.85;4.45;;;10.00;99.90;;;;;;5110265;27;20204;-66
2022/04/03 12:11:53;;;;;;;5.32;4.75;;;10.30;99.90;;;;;;5108253;27;20181;-65
2022/04/03 12:14:32;;;;;;;5.03;4.63;;;10.40;99.90;;;;;;5071983;28;20196;-64
2022/04/03 12:16:59;;;;;;;4.88;4.47;;;10.60;99.90;;;;;;5060629;28;20313;-65
2022/04/03 12:19:25;;;;;;;4.75;4.35;;;10.70;99.90;;;;;;5073613;28;20177;-65
2022/04/03 12:21:56;;;;;;;4.72;4.32;;;10.80;99.90;;;;;;5106510;27;20306;-65
2022/04/03 12:24:23;;;;;;;5.03;4.57;;;10.80;99.90;;;;;;5062081;28;20173;-65
2022/04/03 12:26:49;;;;;;;5.07;4.57;;;10.80;99.90;;;;;;5084488;28;20575;-64
2022/04/03 12:29:16;;;;;;;4.68;4.28;;;10.90;99.90;;;;;;5080725;28;20223;-65
2022/04/03 12:31:54;;;;;;;4.38;3.97;;;10.90;99.90;;;;;;5066740;28;20199;-64
2022/04/03 12:34:21;;;;;;;4.13;3.83;;;11.00;99.90;;;;;;5116277;27;20268;-65
2022/04/03 12:36:49;;;;;;;4.78;4.32;;;11.20;99.90;;;;;;5085008;28;20177;-65
2022/04/03 12:39:54;;;;;;;5.25;4.80;;;11.40;99.90;;;;;;5103961;27;20196;-66
2022/04/03 12:42:20;;;;;;;6.55;4.80;;;11.50;99.90;;;;;;5062612;28;20223;-66
2022/04/03 12:44:56;;;;;;;5.30;4.80;;;11.40;99.90;;;;;;5075309;28;20169;-64
2022/04/03 12:47:43;;;;;;;4.75;4.25;;;11.20;99.90;;;;;;5078980;28;20177;-65
2022/04/03 12:50:23;;;;;;;4.13;3.83;;;10.90;99.90;;;;;;5068840;28;20180;-64
2022/04/03 12:52:48;;;;;;;4.40;4.00;;;10.70;99.90;;;;;;5063362;28;20293;-65
2022/04/03 12:55:23;;;;;;;4.22;3.83;;;10.60;99.90;;;;;;5072453;28;20233;-65
2022/04/03 13:01:16;;;;;;;5.43;3.28;;;10.60;99.90;;;;;;5063864;28;20199;-65
2022/04/03 13:03:51;;;;;;;3.50;3.10;;;10.70;99.90;;;;;;5061881;28;20212;-64
2022/04/03 13:06:33;;;;;;;3.58;3.28;;;10.90;99.90;;;;;;5067693;28;20185;-65